createdAt,value
2022-12-07T00:02:11.571Z,94880.50
2022-12-07T00:04:40.903Z,94885.59
2022-12-07T00:07:10.107Z,94888.22
2022-12-07T00:09:40.206Z,94887.06
2022-12-07T00:12:10.853Z,94890.53
2022-12-07T00:14:40.021Z,94880.09
2022-12-07T00:17:10.620Z,94884.09
2022-12-07T00:19:39.721Z,94883.53
2022-12-07T00:22:09.379Z,94883.13
2022-12-07T00:24:38.460Z,94887.59
2022-12-07T00:27:07.694Z,94880.81
2022-12-07T00:29:58.710Z,94884.00
2022-12-07T00:32:29.585Z,94881.72
2022-12-07T00:34:58.558Z,94884.94
2022-12-07T00:37:28.668Z,94881.16
2022-12-07T00:39:57.768Z,94883.09
2022-12-07T00:42:28.702Z,94883.91
2022-12-07T00:44:57.833Z,94879.41
2022-12-07T00:47:27.725Z,94874.59
2022-12-07T00:49:58.425Z,94875.13
2022-12-07T00:52:28.290Z,94869.66
2022-12-07T00:54:57.433Z,94872.78
2022-12-07T00:57:26.562Z,94870.63
2022-12-07T00:59:59.017Z,94871.50
2022-12-07T01:02:28.599Z,94873.59
2022-12-07T01:05:00.095Z,94877.03
2022-12-07T01:07:29.254Z,94864.06
2022-12-07T01:09:58.554Z,94865.84
2022-12-07T01:12:28.395Z,94868.88
2022-12-07T01:14:58.460Z,94861.34
2022-12-07T01:17:27.511Z,94857.09
2022-12-07T01:19:56.629Z,94857.31
2022-12-07T01:22:27.461Z,94857.50
2022-12-07T01:24:56.689Z,94851.22
2022-12-07T01:27:25.696Z,94851.81
2022-12-07T01:29:55.214Z,94851.97
2022-12-07T01:32:24.256Z,94853.59
2022-12-07T01:34:53.291Z,94852.06
2022-12-07T01:37:22.655Z,94843.38
2022-12-07T01:39:53.463Z,94845.19
2022-12-07T01:42:22.497Z,94849.22
2022-12-07T01:45:24.680Z,94843.00
2022-12-07T01:47:56.169Z,94842.38
2022-12-07T01:50:29.267Z,94845.13
2022-12-07T01:53:02.243Z,94839.19
2022-12-07T01:55:32.981Z,94844.66
2022-12-07T01:58:02.257Z,94841.56
2022-12-07T02:00:32.033Z,94838.53
2022-12-07T02:03:07.218Z,94829.16
2022-12-07T02:05:38.365Z,94823.47
2022-12-07T02:08:08.390Z,94828.06
2022-12-07T02:10:38.987Z,94819.56
2022-12-07T02:13:11.247Z,94817.72
2022-12-07T02:15:52.669Z,94819.16
2022-12-07T02:18:31.543Z,94823.38
2022-12-07T02:21:08.670Z,94822.91
2022-12-07T02:24:13.146Z,94816.09
2022-12-07T02:27:17.421Z,94813.28
2022-12-07T02:29:53.698Z,94817.94
2022-12-07T02:32:28.301Z,94817.41
2022-12-07T02:35:00.754Z,94812.94
2022-12-07T02:37:38.170Z,94803.16
2022-12-07T02:40:17.568Z,94801.53
2022-12-07T02:42:51.778Z,94805.56
2022-12-07T02:45:25.154Z,94804.72
2022-12-07T02:47:59.973Z,94801.31
2022-12-07T02:50:32.303Z,94804.94
2022-12-07T02:53:01.277Z,94799.22
2022-12-07T02:55:34.535Z,94803.25
2022-12-07T02:58:32.678Z,94797.78
2022-12-07T03:01:11.753Z,94797.19
2022-12-07T03:03:49.619Z,94800.03
2022-12-07T03:06:27.620Z,94799.56
2022-12-07T03:09:04.742Z,94787.44
2022-12-07T03:11:45.396Z,94774.69
2022-12-07T03:14:21.475Z,94781.78
2022-12-07T03:16:58.033Z,94794.44
2022-12-07T03:19:32.655Z,94800.50
2022-12-07T03:22:05.896Z,94795.69
2022-12-07T03:24:41.450Z,94795.69
2022-12-07T03:27:16.169Z,94803.00
2022-12-07T03:29:50.890Z,94809.66
2022-12-07T03:32:27.888Z,94804.41
2022-12-07T03:35:01.744Z,94803.94
2022-12-07T03:37:37.115Z,94798.53
2022-12-07T03:40:09.783Z,94797.53
2022-12-07T03:42:39.859Z,94791.13
2022-12-07T03:45:11.256Z,94787.16
2022-12-07T03:47:49.493Z,94785.38
2022-12-07T03:50:28.067Z,94789.56
2022-12-07T03:53:03.345Z,94782.06
2022-12-07T03:55:38.387Z,94789.50
2022-12-07T03:58:12.344Z,94791.31
2022-12-07T04:00:42.875Z,94793.91
2022-12-07T04:03:14.237Z,94792.47
2022-12-07T04:05:45.470Z,94775.44
2022-12-07T04:08:14.791Z,94777.91
2022-12-07T04:10:44.413Z,94791.50
2022-12-07T04:13:13.559Z,94784.94
2022-12-07T04:15:42.707Z,94782.91
2022-12-07T04:18:13.324Z,94788.16
2022-12-07T04:20:42.435Z,94784.81
2022-12-07T04:23:11.666Z,94777.03
2022-12-07T04:25:40.661Z,94779.31
2022-12-07T04:28:13.161Z,94788.34
2022-12-07T04:30:42.464Z,94791.50
2022-12-07T04:33:13.077Z,94781.34
2022-12-07T04:35:44.976Z,94783.97
2022-12-07T04:38:14.035Z,94787.31
2022-12-07T04:40:43.811Z,94785.13
2022-12-07T04:43:12.825Z,94776.94
2022-12-07T04:45:41.864Z,94784.63
2022-12-07T04:48:10.957Z,94784.56
2022-12-07T04:50:46.028Z,94787.31
2022-12-07T04:53:16.317Z,94789.66
2022-12-07T04:55:46.553Z,94794.09
2022-12-07T04:58:16.544Z,94791.78
2022-12-07T05:00:45.724Z,94794.75
2022-12-07T05:03:14.820Z,94797.88
2022-12-07T05:05:45.905Z,94795.94
2022-12-07T05:08:15.752Z,94792.25
2022-12-07T05:10:45.527Z,94788.75
2022-12-07T05:13:14.650Z,94788.03
2022-12-07T05:15:45.820Z,94788.97
2022-12-07T05:18:15.287Z,94785.28
2022-12-07T05:20:47.450Z,94795.41
2022-12-07T05:23:19.712Z,94790.88
2022-12-07T05:25:50.099Z,94786.41
2022-12-07T05:28:19.618Z,94789.56
2022-12-07T05:30:48.666Z,94783.50
2022-12-07T05:33:17.808Z,94784.69
2022-12-07T05:35:48.471Z,94791.31
2022-12-07T05:38:18.870Z,94792.72
2022-12-07T05:40:47.896Z,94795.53
2022-12-07T05:43:17.124Z,94789.09
2022-12-07T05:45:46.688Z,94788.69
2022-12-07T05:48:16.384Z,94788.94
2022-12-07T05:50:52.613Z,94785.84
2022-12-07T05:53:23.403Z,94785.22
2022-12-07T05:55:54.536Z,94782.00
2022-12-07T05:58:40.961Z,94788.06
2022-12-07T06:01:09.997Z,94782.88
2022-12-07T06:03:39.063Z,94784.31
2022-12-07T06:06:10.285Z,94786.31
2022-12-07T06:08:39.416Z,94788.94
2022-12-07T06:11:27.004Z,94777.97
2022-12-07T06:13:56.006Z,94785.59
2022-12-07T06:16:25.142Z,94793.44
2022-12-07T06:19:08.484Z,94795.84
2022-12-07T06:21:39.168Z,94792.13
2022-12-07T06:24:08.581Z,94800.50
2022-12-07T06:26:37.980Z,94803.31
2022-12-07T06:29:07.208Z,94805.28
2022-12-07T06:31:36.379Z,94800.81
2022-12-07T06:34:07.070Z,94805.88
2022-12-07T06:36:38.137Z,94803.63
2022-12-07T06:39:10.294Z,94796.13
2022-12-07T06:41:40.117Z,94800.13
2022-12-07T06:44:10.527Z,94800.84
2022-12-07T06:46:40.872Z,94801.94
2022-12-07T06:49:10.019Z,94800.78
2022-12-07T06:51:42.292Z,94805.09
2022-12-07T06:54:15.716Z,94796.78
2022-12-07T06:56:44.944Z,94794.00
2022-12-07T06:59:14.625Z,94796.34
2022-12-07T07:01:43.791Z,94795.13
2022-12-07T07:04:13.050Z,94794.91
2022-12-07T07:06:42.096Z,94801.50
2022-12-07T07:09:13.902Z,94793.94
2022-12-07T07:11:43.578Z,94794.19
2022-12-07T07:14:12.691Z,94798.56
2022-12-07T07:16:42.257Z,94801.03
2022-12-07T07:19:11.605Z,94802.34
2022-12-07T07:21:40.736Z,94803.69
2022-12-07T07:24:10.267Z,94798.25
2022-12-07T07:26:41.122Z,94798.81
2022-12-07T07:29:10.250Z,94802.53
2022-12-07T07:31:39.953Z,94801.53
2022-12-07T07:34:08.989Z,94812.78
2022-12-07T07:36:39.040Z,94808.41
2022-12-07T07:39:08.536Z,94797.59
2022-12-07T07:41:37.759Z,94807.41
2022-12-07T07:44:08.657Z,94805.84
2022-12-07T07:46:37.761Z,94807.22
2022-12-07T07:49:07.590Z,94794.38
2022-12-07T07:51:36.792Z,94792.53
2022-12-07T07:54:06.653Z,94792.31
2022-12-07T07:56:35.714Z,94792.66
2022-12-07T07:59:05.718Z,94789.19
2022-12-07T08:01:37.117Z,94795.19
2022-12-07T08:04:07.847Z,94801.94
2022-12-07T08:06:37.389Z,94800.13
2022-12-07T08:09:08.482Z,94804.38
2022-12-07T08:11:37.946Z,94803.91
2022-12-07T08:14:07.159Z,94793.16
2022-12-07T08:16:37.658Z,94804.31
2022-12-07T08:19:07.442Z,94805.50
2022-12-07T08:21:36.668Z,94804.31
2022-12-07T08:24:06.063Z,94808.94
2022-12-07T08:26:35.275Z,94807.81
2022-12-07T08:29:04.594Z,94813.75
2022-12-07T08:31:33.654Z,94807.69
2022-12-07T08:34:04.958Z,94802.25
2022-12-07T08:36:34.218Z,94799.75
2022-12-07T08:41:52.674Z,94792.09
2022-12-07T08:44:21.893Z,94789.81
2022-12-07T08:46:54.658Z,94793.28
2022-12-07T08:49:30.627Z,94788.31
2022-12-07T08:51:59.786Z,94790.97
2022-12-07T08:54:31.373Z,94780.50
2022-12-07T08:57:00.793Z,94777.31
2022-12-07T08:59:31.221Z,94781.06
2022-12-07T09:02:01.287Z,94775.16
2022-12-07T09:04:31.926Z,94769.75
2022-12-07T09:07:01.962Z,94770.41
2022-12-07T09:09:31.058Z,94760.84
2022-12-07T09:12:00.861Z,94762.03
2022-12-07T09:14:30.149Z,94762.84
2022-12-07T09:17:09.203Z,94754.59
2022-12-07T09:19:40.141Z,94762.53
2022-12-07T09:22:09.406Z,94753.25
2022-12-07T09:24:38.594Z,94751.75
2022-12-07T09:27:07.987Z,94754.63
2022-12-07T09:29:37.925Z,94747.75
2022-12-07T09:32:11.625Z,94752.41
2022-12-07T09:34:42.640Z,94747.84
2022-12-07T09:37:11.870Z,94745.38
2022-12-07T09:39:49.702Z,94742.22
2022-12-07T09:42:31.736Z,94736.78
2022-12-07T09:45:02.690Z,94732.88
2022-12-07T09:47:35.965Z,94736.28
2022-12-07T09:50:14.801Z,94738.28
2022-12-07T09:52:46.449Z,94732.00
2022-12-07T09:55:22.483Z,94729.69
2022-12-07T09:57:52.829Z,94718.84
2022-12-07T10:00:24.567Z,94714.59
2022-12-07T10:02:59.070Z,94718.94
2022-12-07T10:05:33.694Z,94709.75
2022-12-07T10:08:03.021Z,94710.50
2022-12-07T10:10:38.079Z,94703.78
2022-12-07T10:13:09.577Z,94705.63
2022-12-07T10:15:49.044Z,94709.28
2022-12-07T10:18:27.896Z,94708.78
2022-12-07T10:21:13.781Z,94704.94
2022-12-07T10:23:45.126Z,94715.91
2022-12-07T10:26:31.337Z,94695.63
2022-12-07T10:29:04.139Z,94690.47
2022-12-07T10:31:33.521Z,94690.22
2022-12-07T10:34:03.769Z,94688.06
2022-12-07T10:36:41.007Z,94681.81
2022-12-07T10:39:17.083Z,94675.19
2022-12-07T10:42:01.209Z,94676.19
2022-12-07T10:44:32.541Z,94672.72
2022-12-07T10:47:19.788Z,94660.28
2022-12-07T10:50:27.052Z,94639.66
2022-12-07T10:53:17.382Z,94636.66
2022-12-07T10:56:13.184Z,94639.31
2022-12-07T10:59:00.150Z,94654.38
2022-12-07T11:01:35.860Z,94655.81
2022-12-07T11:04:24.267Z,94656.72
2022-12-07T11:07:01.647Z,94655.91
2022-12-07T11:10:10.672Z,94644.03
2022-12-07T11:13:00.471Z,94646.13
2022-12-07T11:15:41.480Z,94644.75
2022-12-07T11:18:17.750Z,94642.75
2022-12-07T11:20:55.582Z,94636.66
2022-12-07T11:23:42.693Z,94637.38
2022-12-07T11:26:19.112Z,94629.00
2022-12-07T11:29:06.017Z,94621.47
2022-12-07T11:31:45.866Z,94619.97
2022-12-07T11:34:25.890Z,94612.63
2022-12-07T11:36:57.935Z,94615.16
2022-12-07T11:39:33.170Z,94604.06
2022-12-07T11:42:13.116Z,94609.50
2022-12-07T11:44:50.767Z,94604.13
2022-12-07T11:47:24.303Z,94612.50
2022-12-07T11:49:59.448Z,94597.53
2022-12-07T11:52:35.009Z,94594.06
2022-12-07T11:55:08.463Z,94598.22
2022-12-07T11:57:45.852Z,94589.16
2022-12-07T12:00:17.696Z,94586.25
2022-12-07T12:02:53.762Z,94587.31
2022-12-07T12:05:24.972Z,94584.41
2022-12-07T12:11:01.986Z,94583.66
2022-12-07T12:17:33.393Z,94566.78
2022-12-07T12:20:08.601Z,94560.84
2022-12-07T12:22:42.153Z,94564.94
2022-12-07T12:25:27.478Z,94558.34
2022-12-07T12:28:14.285Z,94564.44
2022-12-07T12:30:45.100Z,94554.91
2022-12-07T12:33:22.620Z,94552.88
2022-12-07T12:36:27.080Z,94546.16
2022-12-07T12:39:14.727Z,94539.19
2022-12-07T12:42:08.450Z,94542.44
2022-12-07T12:44:59.353Z,94554.75
2022-12-07T12:47:55.786Z,94548.06
2022-12-07T12:50:33.242Z,94543.31
2022-12-07T12:53:14.753Z,94538.34
2022-12-07T12:56:09.695Z,94544.13
2022-12-07T12:58:49.890Z,94543.13
2022-12-07T13:01:55.282Z,94545.06
2022-12-07T13:05:01.415Z,94542.41
2022-12-07T13:07:56.684Z,94536.66
2022-12-07T13:10:43.553Z,94528.72
2022-12-07T13:13:32.593Z,94530.00
2022-12-07T13:16:50.297Z,94534.81
2022-12-07T13:20:03.018Z,94533.94
2022-12-07T13:22:54.351Z,94531.09
2022-12-07T13:25:50.671Z,94534.97
2022-12-07T13:28:21.521Z,94536.06
2022-12-07T13:31:16.489Z,94530.59
2022-12-07T13:33:46.747Z,94536.25
2022-12-07T13:36:22.537Z,94519.16
2022-12-07T13:38:56.711Z,94527.06
2022-12-07T13:41:27.555Z,94530.72
2022-12-07T13:44:04.162Z,94522.00
2022-12-07T13:46:45.523Z,94528.09
2022-12-07T13:49:22.544Z,94526.94
2022-12-07T13:51:52.760Z,94532.50
2022-12-07T13:54:23.977Z,94531.16
2022-12-07T13:56:54.701Z,94531.53
2022-12-07T13:59:26.730Z,94529.34
2022-12-07T14:01:56.984Z,94524.09
2022-12-07T14:04:35.901Z,94516.94
2022-12-07T14:07:24.834Z,94522.19
2022-12-07T14:10:27.037Z,94528.16
2022-12-07T14:12:58.548Z,94521.69
2022-12-07T14:15:32.390Z,94525.34
2022-12-07T14:18:06.052Z,94529.59
2022-12-07T14:20:48.002Z,94518.72
2022-12-07T14:23:30.064Z,94526.03
2022-12-07T14:26:10.495Z,94531.44
2022-12-07T14:28:40.251Z,94529.19
2022-12-07T14:31:21.306Z,94533.06
2022-12-07T14:33:54.466Z,94530.97
2022-12-07T14:36:23.721Z,94525.91
2022-12-07T14:38:55.534Z,94529.94
2022-12-07T14:41:44.071Z,94533.38
2022-12-07T14:44:24.764Z,94533.88
2022-12-07T14:49:43.852Z,94525.53
2022-12-07T14:55:07.824Z,94529.22
2022-12-07T14:57:39.089Z,94543.91
2022-12-07T15:00:09.730Z,94531.75
2022-12-07T15:02:39.543Z,94533.53
2022-12-07T15:05:15.466Z,94539.44
2022-12-07T15:07:46.019Z,94538.91
2022-12-07T15:10:23.643Z,94528.84
2022-12-07T15:12:55.237Z,94544.78
2022-12-07T15:15:26.125Z,94531.16
2022-12-07T15:18:06.334Z,94534.97
2022-12-07T15:20:35.789Z,94542.78
2022-12-07T15:23:05.357Z,94543.94
2022-12-07T15:25:35.005Z,94551.16
2022-12-07T15:28:06.408Z,94552.78
2022-12-07T15:30:35.933Z,94554.31
2022-12-07T15:33:05.435Z,94556.38
2022-12-07T15:35:35.224Z,94554.97
2022-12-07T15:38:05.912Z,94551.88
2022-12-07T15:40:36.339Z,94553.00
2022-12-07T15:43:28.126Z,94555.19
2022-12-07T15:45:56.314Z,94554.38
2022-12-07T15:48:28.683Z,94556.31
2022-12-07T15:51:09.452Z,94556.31
2022-12-07T15:53:38.636Z,94552.50
2022-12-07T15:56:10.515Z,94554.69
2022-12-07T15:58:41.442Z,94551.16
2022-12-07T16:01:14.166Z,94548.59
2022-12-07T16:03:44.075Z,94553.78
2022-12-07T16:06:13.434Z,94569.03
2022-12-07T16:08:45.227Z,94573.47
2022-12-07T16:11:16.073Z,94571.66
2022-12-07T16:13:46.646Z,94572.75
2022-12-07T16:16:19.837Z,94577.72
2022-12-07T16:18:51.142Z,94577.25
2022-12-07T16:21:25.612Z,94576.41
2022-12-07T16:23:55.317Z,94563.09
2022-12-07T16:26:25.168Z,94563.53
2022-12-07T16:28:56.665Z,94572.13
2022-12-07T16:31:29.113Z,94574.31
2022-12-07T16:34:00.547Z,94579.31
2022-12-07T16:37:02.599Z,94582.69
2022-12-07T16:39:20.817Z,94582.25
2022-12-07T16:41:50.216Z,94581.31
2022-12-07T16:44:20.939Z,94578.41
2022-12-07T16:46:53.358Z,94572.91
2022-12-07T16:49:25.327Z,94564.72
2022-12-07T16:52:18.262Z,94572.09
2022-12-07T16:54:44.205Z,94572.03
2022-12-07T16:57:18.357Z,94573.53
2022-12-07T16:59:53.933Z,94582.84
2022-12-07T17:02:25.075Z,94579.47
2022-12-07T17:04:54.318Z,94584.06
2022-12-07T17:07:24.308Z,94590.16
2022-12-07T17:09:56.513Z,94589.38
2022-12-07T17:12:26.670Z,94592.47
2022-12-07T17:15:14.782Z,94590.63
2022-12-07T17:17:45.525Z,94593.91
2022-12-07T17:20:15.655Z,94596.31
2022-12-07T17:22:45.001Z,94597.78
2022-12-07T17:25:16.213Z,94609.72
2022-12-07T17:27:47.392Z,94611.53
2022-12-07T17:30:19.298Z,94617.03
2022-12-07T17:32:49.348Z,94616.13
2022-12-07T17:35:20.330Z,94616.66
2022-12-07T17:37:51.204Z,94620.94
2022-12-07T17:40:22.585Z,94617.28
2022-12-07T17:42:53.733Z,94621.22
2022-12-07T17:45:26.206Z,94633.28
2022-12-07T17:47:56.436Z,94624.59
2022-12-07T17:50:45.785Z,94625.06
2022-12-07T17:53:17.542Z,94618.00
2022-12-07T17:56:20.053Z,94621.00
2022-12-07T17:58:40.565Z,94618.00
2022-12-07T18:01:13.118Z,94609.69
2022-12-07T18:03:46.038Z,94622.66
2022-12-07T18:06:16.974Z,94621.59
2022-12-07T18:08:47.041Z,94633.94
2022-12-07T18:11:17.289Z,94646.06
2022-12-07T18:13:48.541Z,94637.22
2022-12-07T18:16:25.741Z,94647.13
2022-12-07T18:18:56.894Z,94648.41
2022-12-07T18:21:31.330Z,94648.44
2022-12-07T18:24:03.016Z,94644.94
2022-12-07T18:26:36.683Z,94648.38
2022-12-07T18:29:07.832Z,94651.75
2022-12-07T18:31:39.391Z,94643.38
2022-12-07T18:34:12.379Z,94655.22
2022-12-07T18:36:51.676Z,94663.38
2022-12-07T18:39:21.763Z,94660.34
2022-12-07T18:41:54.932Z,94653.69
2022-12-07T18:44:23.772Z,94657.38
2022-12-07T18:46:54.564Z,94662.69
2022-12-07T18:49:24.568Z,94663.53
2022-12-07T18:51:53.924Z,94646.38
2022-12-07T18:54:23.742Z,94644.34
2022-12-07T18:56:58.344Z,94645.03
2022-12-07T18:59:45.361Z,94643.97
2022-12-07T19:02:16.048Z,94648.41
2022-12-07T19:04:45.517Z,94650.84
2022-12-07T19:07:19.798Z,94646.63
2022-12-07T19:09:49.833Z,94648.66
2022-12-07T19:12:21.528Z,94655.72
2022-12-07T19:14:51.550Z,94650.72
2022-12-07T19:17:22.779Z,94652.34
2022-12-07T19:19:52.494Z,94648.94
2022-12-07T19:22:24.260Z,94657.59
2022-12-07T19:24:55.788Z,94657.00
2022-12-07T19:27:26.803Z,94657.25
2022-12-07T19:29:56.267Z,94677.00
2022-12-07T19:32:28.331Z,94664.91
2022-12-07T19:34:57.734Z,94666.72
2022-12-07T19:37:30.804Z,94669.38
2022-12-07T19:40:00.710Z,94677.84
2022-12-07T19:42:35.582Z,94679.03
2022-12-07T19:45:05.530Z,94670.16
2022-12-07T19:47:37.707Z,94673.78
2022-12-07T19:50:18.911Z,94669.75
2022-12-07T19:52:58.809Z,94670.16
2022-12-07T19:55:28.777Z,94678.41
2022-12-07T19:57:59.915Z,94686.69
2022-12-07T20:00:30.561Z,94676.41
2022-12-07T20:03:02.085Z,94686.06
2022-12-07T20:05:31.426Z,94676.63
2022-12-07T20:08:00.802Z,94676.22
2022-12-07T20:10:30.018Z,94694.75
2022-12-07T20:13:16.035Z,94687.28
2022-12-07T20:15:45.906Z,94685.09
2022-12-07T20:18:17.802Z,94687.50
2022-12-07T20:20:56.621Z,94684.66
2022-12-07T20:23:27.496Z,94691.50
2022-12-07T20:25:58.557Z,94685.28
2022-12-07T20:28:28.419Z,94696.38
2022-12-07T20:30:57.625Z,94697.56
2022-12-07T20:33:30.180Z,94700.19
2022-12-07T20:36:06.097Z,94704.44
2022-12-07T20:38:35.304Z,94701.56
2022-12-07T20:41:06.843Z,94712.50
2022-12-07T20:43:36.345Z,94708.63
2022-12-07T20:46:06.569Z,94707.06
2022-12-07T20:48:37.112Z,94710.84
2022-12-07T20:51:07.844Z,94702.38
2022-12-07T20:53:37.418Z,94699.41
2022-12-07T20:56:07.384Z,94701.22
2022-12-07T20:58:38.068Z,94690.31
2022-12-07T21:01:07.619Z,94688.91
2022-12-07T21:03:38.254Z,94690.13
2022-12-07T21:06:08.426Z,94696.97
2022-12-07T21:08:40.770Z,94698.38
2022-12-07T21:11:10.658Z,94708.69
2022-12-07T21:13:42.623Z,94707.25
2022-12-07T21:16:13.800Z,94704.84
2022-12-07T21:18:46.705Z,94698.38
2022-12-07T21:21:19.565Z,94697.97
2022-12-07T21:23:50.980Z,94706.84
2022-12-07T21:26:23.625Z,94700.00
2022-12-07T21:28:53.975Z,94705.81
2022-12-07T21:31:24.465Z,94697.38
2022-12-07T21:33:55.359Z,94703.19
2022-12-07T21:36:26.500Z,94703.19
2022-12-07T21:38:56.054Z,94709.06
2022-12-07T21:41:26.726Z,94707.66
2022-12-07T21:43:57.340Z,94712.91
2022-12-07T21:46:33.729Z,94725.81
2022-12-07T21:49:08.308Z,94726.00
2022-12-07T21:51:37.850Z,94721.38
2022-12-07T21:54:08.214Z,94716.53
2022-12-07T21:56:39.159Z,94717.94
2022-12-07T21:59:12.244Z,94710.88
2022-12-07T22:01:45.699Z,94703.22
2022-12-07T22:04:23.830Z,94699.78
2022-12-07T22:06:55.229Z,94703.44
2022-12-07T22:09:25.013Z,94698.78
2022-12-07T22:11:54.284Z,94696.97
2022-12-07T22:14:40.648Z,94701.63
2022-12-07T22:17:09.690Z,94696.75
2022-12-07T22:19:40.600Z,94696.78
2022-12-07T22:22:14.538Z,94694.34
2022-12-07T22:24:44.559Z,94680.63
2022-12-07T22:27:15.026Z,94685.28
2022-12-07T22:29:44.316Z,94684.28
2022-12-07T22:32:46.447Z,94676.22
2022-12-07T22:35:06.299Z,94688.28
2022-12-07T22:37:36.836Z,94678.22
2022-12-07T22:40:06.971Z,94683.28
2022-12-07T22:42:36.219Z,94677.00
2022-12-07T22:45:06.405Z,94691.91
2022-12-07T22:47:36.423Z,94688.25
2022-12-07T22:50:08.998Z,94690.28
2022-12-07T22:52:38.156Z,94690.69
2022-12-07T22:55:08.348Z,94694.28
2022-12-07T22:57:37.492Z,94694.69
2022-12-07T23:00:09.279Z,94692.47
2022-12-07T23:02:38.942Z,94694.53
2022-12-07T23:05:10.463Z,94692.25
2022-12-07T23:07:39.741Z,94685.63
2022-12-07T23:10:10.923Z,94682.16
2022-12-07T23:12:57.294Z,94680.78
2022-12-07T23:15:26.418Z,94697.06
2022-12-07T23:17:56.066Z,94689.44
2022-12-07T23:20:28.119Z,94699.06
2022-12-07T23:22:57.418Z,94698.06
2022-12-07T23:25:26.569Z,94710.53
2022-12-07T23:27:55.788Z,94709.66
2022-12-07T23:30:25.339Z,94714.06
2022-12-07T23:32:55.099Z,94717.69
2022-12-07T23:35:24.799Z,94720.66
2022-12-07T23:37:55.324Z,94724.91
2022-12-07T23:40:24.475Z,94727.59
2022-12-07T23:42:53.644Z,94722.31
2022-12-07T23:45:22.726Z,94718.94
2022-12-07T23:47:51.813Z,94718.50
2022-12-07T23:50:21.036Z,94722.97
2022-12-07T23:52:50.465Z,94720.38
2022-12-07T23:55:21.311Z,94723.19
2022-12-07T23:57:50.502Z,94725.16
